Time;durP1;ratioP1;P1;durP2;ratioP2;P2;SDS_P1;SDS_P2;PMS_P1;PMS_P2;Temp;Humidity;BMP_temperature;BMP_pressure;BME280_temperature;BME280_humidity;BME280_pressure;Samples;Min_cycle;Max_cycle;Signal;HPM_P1;HPM_P2
2022/08/16 00:02:05;;;;;;;0.77;0.73;;;21.90;65.10;;;;;;6275147;22;20019;-74
2022/08/16 00:04:31;;;;;;;1.00;0.90;;;21.80;65.20;;;;;;6248378;22;20431;-74
2022/08/16 00:06:57;;;;;;;0.82;0.82;;;21.80;65.20;;;;;;6247406;22;20018;-74
2022/08/16 00:09:24;;;;;;;0.88;0.80;;;21.80;65.30;;;;;;6274699;22;20373;-74
2022/08/16 00:11:50;;;;;;;0.93;0.80;;;21.60;65.30;;;;;;6274527;22;20011;-74
2022/08/16 00:14:22;;;;;;;0.90;0.77;;;21.60;65.50;;;;;;6222344;22;20011;-74
2022/08/16 00:16:48;;;;;;;0.80;0.80;;;21.60;65.60;;;;;;6271715;22;20008;-74
2022/08/16 00:19:16;;;;;;;0.80;0.80;;;21.50;65.60;;;;;;6274218;22;20004;-74
2022/08/16 00:21:43;;;;;;;0.70;0.70;;;21.50;65.70;;;;;;6248625;22;20014;-74
2022/08/16 00:24:09;;;;;;;0.80;0.80;;;21.50;65.80;;;;;;6274562;22;20014;-74
2022/08/16 00:26:35;;;;;;;0.98;0.90;;;21.50;65.90;;;;;;6247528;22;20011;-74
2022/08/16 00:29:01;;;;;;;1.13;0.95;;;21.40;65.90;;;;;;6247427;22;20061;-74
2022/08/16 00:31:30;;;;;;;0.80;0.80;;;21.50;66.00;;;;;;6275530;22;20367;-74
2022/08/16 00:33:56;;;;;;;1.33;1.00;;;21.40;66.00;;;;;;6248383;22;20010;-74
2022/08/16 00:36:22;;;;;;;0.90;0.90;;;21.40;66.10;;;;;;6248931;22;20007;-74
2022/08/16 00:38:47;;;;;;;1.15;1.00;;;21.40;66.20;;;;;;6275827;22;20010;-74
2022/08/16 00:41:13;;;;;;;0.80;0.80;;;21.30;66.20;;;;;;6249321;22;20483;-74
2022/08/16 00:43:39;;;;;;;1.15;1.05;;;21.30;66.30;;;;;;6276260;22;20332;-74
2022/08/16 00:46:20;;;;;;;0.80;0.80;;;21.30;66.40;;;;;;6276253;22;20015;-74
2022/08/16 00:48:46;;;;;;;0.85;0.85;;;21.20;66.50;;;;;;6275204;22;20012;-74
2022/08/16 00:51:14;;;;;;;1.23;1.13;;;21.20;66.50;;;;;;6248780;22;20008;-72
2022/08/16 00:53:40;;;;;;;1.00;1.00;;;21.20;66.50;;;;;;6275541;22;20011;-73
2022/08/16 00:56:10;;;;;;;1.30;1.05;;;21.10;66.50;;;;;;6276460;22;20011;-73
2022/08/16 00:58:42;;;;;;;1.02;0.90;;;21.00;66.60;;;;;;6249821;22;20057;-73
2022/08/16 01:01:08;;;;;;;1.17;1.08;;;21.00;66.80;;;;;;6272949;22;20061;-73
2022/08/16 01:03:36;;;;;;;0.95;0.90;;;21.00;66.80;;;;;;6275624;22;20008;-73
2022/08/16 01:06:03;;;;;;;0.80;0.80;;;21.00;67.00;;;;;;6276320;22;20431;-73
2022/08/16 01:08:30;;;;;;;1.23;1.13;;;20.90;67.00;;;;;;6248583;22;20069;-73
2022/08/16 01:10:56;;;;;;;1.25;0.80;;;20.90;67.10;;;;;;6276210;22;20331;-73
2022/08/16 01:13:25;;;;;;;1.10;1.00;;;20.80;67.10;;;;;;6273128;22;20111;-74
2022/08/16 01:16:03;;;;;;;1.35;1.20;;;20.80;67.20;;;;;;6275281;22;20007;-73
2022/08/16 01:18:35;;;;;;;1.10;1.00;;;20.80;67.40;;;;;;6274371;22;20081;-73
2022/08/16 01:21:16;;;;;;;1.08;1.00;;;20.80;67.40;;;;;;6223135;22;20343;-73
2022/08/16 01:24:19;;;;;;;0.90;0.90;;;20.70;67.40;;;;;;6274170;22;20012;-73
2022/08/16 01:26:47;;;;;;;1.10;1.00;;;20.70;67.60;;;;;;6274321;22;20035;-73
2022/08/16 01:29:21;;;;;;;1.10;1.00;;;20.60;67.50;;;;;;6275442;22;20007;-73
2022/08/16 01:31:48;;;;;;;2.13;0.90;;;20.70;67.70;;;;;;6275761;22;20018;-73
2022/08/16 01:34:14;;;;;;;1.17;1.08;;;20.60;67.70;;;;;;6275710;22;20015;-73
2022/08/16 01:36:40;;;;;;;1.20;0.90;;;20.50;67.70;;;;;;6275593;22;20416;-73
2022/08/16 01:39:11;;;;;;;1.10;1.00;;;20.50;67.80;;;;;;6248874;22;20092;-73
2022/08/16 01:41:37;;;;;;;1.05;0.95;;;20.50;67.90;;;;;;6275283;22;20065;-73
2022/08/16 01:44:03;;;;;;;1.20;1.10;;;20.50;68.00;;;;;;6275564;22;20008;-73
2022/08/16 01:46:36;;;;;;;1.63;1.20;;;20.40;67.90;;;;;;6275151;22;20043;-73
2022/08/16 01:49:09;;;;;;;1.10;1.00;;;20.40;68.10;;;;;;6275225;22;20030;-73
2022/08/16 01:51:36;;;;;;;1.13;1.02;;;20.40;68.10;;;;;;6275488;22;20019;-73
2022/08/16 01:54:03;;;;;;;1.20;1.10;;;20.40;68.10;;;;;;6248745;22;20035;-73
2022/08/16 01:56:29;;;;;;;1.30;1.20;;;20.30;68.10;;;;;;6275471;22;20012;-73
2022/08/16 01:58:57;;;;;;;1.20;1.10;;;20.30;68.20;;;;;;6223339;22;20015;-73
2022/08/16 02:01:24;;;;;;;1.52;1.08;;;20.30;68.30;;;;;;6276120;22;20087;-73
2022/08/16 02:03:50;;;;;;;1.05;0.95;;;20.30;68.40;;;;;;6275263;22;20007;-73
2022/08/16 02:06:17;;;;;;;1.17;1.08;;;20.20;68.40;;;;;;6248652;22;20011;-73
2022/08/16 02:08:43;;;;;;;1.77;1.05;;;20.20;68.50;;;;;;6272984;22;20011;-73
2022/08/16 02:11:09;;;;;;;1.02;0.82;;;20.20;68.60;;;;;;6274880;22;20026;-73
2022/08/16 02:13:36;;;;;;;1.05;0.90;;;20.10;68.60;;;;;;6275912;22;20004;-73
2022/08/16 02:16:04;;;;;;;1.13;1.02;;;20.10;68.70;;;;;;6276060;22;20433;-73
2022/08/16 02:18:29;;;;;;;1.08;1.00;;;20.10;68.80;;;;;;6275423;22;20067;-73
2022/08/16 02:20:55;;;;;;;1.10;1.00;;;20.10;68.90;;;;;;6248137;22;20062;-73
2022/08/16 02:23:21;;;;;;;1.08;0.98;;;20.10;68.90;;;;;;6275178;22;20046;-73
2022/08/16 02:25:47;;;;;;;0.95;0.90;;;20.10;69.00;;;;;;6223066;22;20340;-73
2022/08/16 02:28:21;;;;;;;1.30;1.20;;;20.00;69.00;;;;;;6275784;22;20011;-73
2022/08/16 02:30:47;;;;;;;1.20;1.00;;;20.00;69.10;;;;;;6245299;22;20016;-73
2022/08/16 02:33:13;;;;;;;1.42;1.08;;;20.00;69.10;;;;;;6275108;22;20087;-73
2022/08/16 02:35:39;;;;;;;1.35;1.10;;;20.00;69.30;;;;;;6275361;22;20331;-73
2022/08/16 02:38:05;;;;;;;1.00;0.90;;;19.90;69.20;;;;;;6276164;22;20004;-73
2022/08/16 02:40:31;;;;;;;1.38;1.23;;;19.90;69.30;;;;;;6242100;22;20333;-73
2022/08/16 02:42:57;;;;;;;0.85;0.85;;;19.90;69.40;;;;;;6275341;22;20023;-73
2022/08/16 02:45:26;;;;;;;1.20;1.10;;;19.80;69.40;;;;;;6275089;22;20004;-73
2022/08/16 02:47:52;;;;;;;1.15;1.02;;;19.80;69.50;;;;;;6247975;22;20110;-73
2022/08/16 02:50:19;;;;;;;2.53;1.10;;;19.70;69.50;;;;;;6272274;22;20329;-73
2022/08/16 02:52:44;;;;;;;1.20;1.10;;;19.80;69.70;;;;;;6274623;22;20031;-73
2022/08/16 02:55:11;;;;;;;0.90;0.85;;;19.70;69.80;;;;;;6275878;22;20011;-73
2022/08/16 02:57:37;;;;;;;0.80;0.80;;;19.70;69.90;;;;;;6275118;22;20416;-73
2022/08/16 03:00:08;;;;;;;1.27;1.10;;;19.60;70.10;;;;;;6275486;22;20007;-73
2022/08/16 03:02:35;;;;;;;1.02;0.90;;;19.60;70.10;;;;;;6275127;22;20086;-73
2022/08/16 03:05:01;;;;;;;0.90;0.90;;;19.60;70.20;;;;;;6248890;22;20000;-73
2022/08/16 03:07:27;;;;;;;1.23;1.13;;;19.60;70.20;;;;;;6275196;22;20039;-73
2022/08/16 03:09:52;;;;;;;1.40;1.20;;;19.50;70.30;;;;;;6274975;22;20000;-73
2022/08/16 03:12:18;;;;;;;1.27;1.13;;;19.50;70.30;;;;;;6275620;22;20007;-73
2022/08/16 03:14:45;;;;;;;1.30;1.20;;;19.50;70.40;;;;;;6275149;22;20016;-73
2022/08/16 03:17:11;;;;;;;1.10;1.00;;;19.50;70.60;;;;;;6274675;22;20335;-73
2022/08/16 03:19:36;;;;;;;1.13;1.00;;;19.40;70.60;;;;;;6248111;22;20038;-73
2022/08/16 03:22:03;;;;;;;1.35;1.10;;;19.40;70.70;;;;;;6275166;22;20011;-73
2022/08/16 03:24:29;;;;;;;1.35;1.00;;;19.40;70.70;;;;;;6274951;22;20035;-73
2022/08/16 03:26:58;;;;;;;1.13;1.05;;;19.40;70.80;;;;;;6275717;22;20015;-73
2022/08/16 03:29:27;;;;;;;2.67;1.40;;;19.30;70.80;;;;;;6272558;22;20015;-73
2022/08/16 03:31:53;;;;;;;1.13;1.02;;;19.30;70.90;;;;;;6272110;22;20076;-73
2022/08/16 03:34:20;;;;;;;1.30;1.20;;;19.30;70.90;;;;;;6274909;22;20487;-73
2022/08/16 03:36:46;;;;;;;1.10;1.00;;;19.30;71.00;;;;;;6274627;22;20011;-73
2022/08/16 03:39:12;;;;;;;1.20;1.08;;;19.30;71.00;;;;;;6275159;22;20339;-73
2022/08/16 03:41:40;;;;;;;1.05;0.98;;;19.30;71.10;;;;;;6272021;22;20012;-73
2022/08/16 03:44:06;;;;;;;2.92;1.25;;;19.20;71.10;;;;;;6274742;22;20376;-73
2022/08/16 03:46:32;;;;;;;1.27;1.17;;;19.20;71.20;;;;;;6274794;22;20036;-73
2022/08/16 03:48:58;;;;;;;1.05;0.95;;;19.20;71.30;;;;;;6275250;22;20485;-73
2022/08/16 03:51:24;;;;;;;1.42;1.20;;;19.20;71.40;;;;;;6247573;22;20008;-73
2022/08/16 03:53:50;;;;;;;1.15;1.00;;;19.10;71.40;;;;;;6274692;22;20003;-73
2022/08/16 03:56:16;;;;;;;1.27;1.05;;;19.10;71.50;;;;;;6248342;22;20016;-73
2022/08/16 03:58:42;;;;;;;1.20;1.10;;;19.10;71.60;;;;;;6274773;22;20506;-73
2022/08/16 04:01:08;;;;;;;1.25;0.90;;;19.00;71.60;;;;;;6274715;22;20012;-73
2022/08/16 04:03:34;;;;;;;1.20;1.10;;;19.00;71.60;;;;;;6247963;22;20022;-73
2022/08/16 04:06:00;;;;;;;1.27;1.17;;;19.00;71.70;;;;;;6276731;22;20011;-73
2022/08/16 04:08:26;;;;;;;1.80;1.10;;;19.00;71.80;;;;;;6276674;22;20054;-73
2022/08/16 04:10:54;;;;;;;1.20;1.10;;;19.00;71.80;;;;;;6276854;22;20019;-73
2022/08/16 04:13:20;;;;;;;1.20;1.10;;;19.00;71.90;;;;;;6276643;22;20004;-73
2022/08/16 04:15:46;;;;;;;1.52;1.20;;;18.90;71.90;;;;;;6276944;22;20420;-73
2022/08/16 04:18:13;;;;;;;1.38;1.10;;;18.90;72.00;;;;;;6276412;22;20008;-73
2022/08/16 04:20:38;;;;;;;1.30;1.10;;;18.90;72.00;;;;;;6276084;22;20348;-73
2022/08/16 04:23:06;;;;;;;1.25;1.10;;;18.90;72.10;;;;;;6276533;22;20008;-73
2022/08/16 04:25:34;;;;;;;1.33;1.10;;;18.90;72.10;;;;;;6276188;22;20011;-73
2022/08/16 04:28:00;;;;;;;1.20;1.10;;;18.90;72.20;;;;;;6249704;22;20007;-73
2022/08/16 04:30:26;;;;;;;1.67;1.40;;;18.80;72.20;;;;;;6276008;22;20098;-73
2022/08/16 04:32:53;;;;;;;1.17;1.05;;;18.80;72.30;;;;;;6276077;22;20016;-73
2022/08/16 04:35:21;;;;;;;1.65;1.20;;;18.80;72.40;;;;;;6276259;22;20008;-73
2022/08/16 04:37:48;;;;;;;1.20;1.10;;;18.70;72.40;;;;;;6276096;22;20008;-73
2022/08/16 04:40:14;;;;;;;1.33;1.20;;;18.70;72.50;;;;;;6273476;22;20090;-73
2022/08/16 04:42:41;;;;;;;1.40;1.20;;;18.70;72.60;;;;;;6276072;22;20082;-73
2022/08/16 04:45:09;;;;;;;1.50;1.30;;;18.70;72.60;;;;;;6276264;22;20008;-73
2022/08/16 04:47:36;;;;;;;1.13;1.02;;;18.70;72.70;;;;;;6276540;22;20008;-73
2022/08/16 04:50:08;;;;;;;1.33;1.10;;;18.70;72.70;;;;;;6276036;22;20004;-73
2022/08/16 04:52:35;;;;;;;1.00;0.82;;;18.70;72.80;;;;;;6274276;22;20054;-73
2022/08/16 04:55:04;;;;;;;1.20;1.02;;;18.70;72.70;;;;;;6248968;22;20062;-73
2022/08/16 04:57:30;;;;;;;1.60;1.30;;;18.80;72.70;;;;;;6273204;22;20062;-73
2022/08/16 04:59:56;;;;;;;1.73;1.23;;;18.80;72.70;;;;;;6276502;22;20416;-73
2022/08/16 05:02:22;;;;;;;1.38;1.20;;;18.80;72.70;;;;;;6276293;22;20019;-73
2022/08/16 05:04:47;;;;;;;1.73;1.50;;;18.80;72.60;;;;;;6276026;22;20012;-73
2022/08/16 05:07:13;;;;;;;2.22;1.60;;;18.80;72.60;;;;;;6275907;22;20011;-73
2022/08/16 05:09:39;;;;;;;1.80;1.40;;;18.80;72.60;;;;;;6276018;22;20409;-73
2022/08/16 05:12:05;;;;;;;1.55;1.30;;;18.90;72.70;;;;;;6275851;22;20012;-73
2022/08/16 05:14:30;;;;;;;1.38;1.27;;;19.00;72.60;;;;;;6275719;22;20090;-73
2022/08/16 05:16:56;;;;;;;1.60;1.25;;;19.00;72.60;;;;;;6248767;22;20082;-73
2022/08/16 05:19:24;;;;;;;1.63;1.35;;;19.00;72.50;;;;;;6276582;22;20004;-73
2022/08/16 05:21:49;;;;;;;1.83;1.40;;;19.00;73.20;;;;;;6275698;22;20394;-73
2022/08/16 05:24:15;;;;;;;2.03;1.50;;;19.10;72.50;;;;;;6248727;22;20039;-73
2022/08/16 05:26:41;;;;;;;1.15;1.05;;;19.10;72.40;;;;;;6275725;22;20065;-73
2022/08/16 05:29:07;;;;;;;1.27;1.17;;;19.20;72.50;;;;;;6276653;22;20062;-73
2022/08/16 05:31:33;;;;;;;2.03;1.58;;;19.20;72.30;;;;;;6272680;22;20011;-73
2022/08/16 05:34:01;;;;;;;1.30;1.20;;;19.20;72.30;;;;;;6276011;22;20007;-73
2022/08/16 05:36:27;;;;;;;1.52;1.27;;;19.20;72.30;;;;;;6275831;22;20335;-73
2022/08/16 05:38:53;;;;;;;2.17;1.50;;;19.30;72.40;;;;;;6249231;22;20010;-73
2022/08/16 05:41:19;;;;;;;2.00;1.60;;;19.30;72.40;;;;;;6276128;22;20018;-73
2022/08/16 05:43:45;;;;;;;2.03;1.42;;;19.30;72.40;;;;;;6275610;22;20014;-74
2022/08/16 05:46:11;;;;;;;1.70;1.40;;;19.30;72.40;;;;;;6275604;22;20078;-73
2022/08/16 05:48:37;;;;;;;1.55;1.25;;;19.30;72.40;;;;;;6275953;22;20015;-73
2022/08/16 05:51:03;;;;;;;2.00;1.33;;;19.40;72.90;;;;;;6275832;22;20008;-73
2022/08/16 05:53:29;;;;;;;1.85;1.52;;;19.50;72.20;;;;;;6275595;22;20011;-73
2022/08/16 05:55:55;;;;;;;2.33;1.77;;;19.50;72.20;;;;;;6248740;22;20012;-73
2022/08/16 05:58:20;;;;;;;1.38;1.27;;;19.50;72.20;;;;;;6276541;22;20087;-73
2022/08/16 06:00:46;;;;;;;1.50;1.40;;;19.60;72.20;;;;;;6275785;22;20435;-73
2022/08/16 06:03:12;;;;;;;2.08;1.48;;;19.60;72.10;;;;;;6275664;22;20435;-73
2022/08/16 06:05:38;;;;;;;1.45;1.30;;;19.70;72.10;;;;;;6276111;22;20012;-73
2022/08/16 06:08:04;;;;;;;2.40;1.70;;;19.70;72.00;;;;;;6276224;22;20086;-73
2022/08/16 06:10:30;;;;;;;2.25;1.70;;;19.70;72.10;;;;;;6275743;22;20004;-73
2022/08/16 06:12:56;;;;;;;2.75;2.00;;;19.80;72.20;;;;;;6223461;22;20015;-74
2022/08/16 06:15:22;;;;;;;1.92;1.65;;;19.80;72.10;;;;;;6275570;22;20096;-74
2022/08/16 06:17:47;;;;;;;1.70;1.52;;;19.80;72.10;;;;;;6276058;22;20008;-74
2022/08/16 06:20:18;;;;;;;2.55;1.90;;;20.00;72.10;;;;;;6275550;22;20008;-74
2022/08/16 06:22:44;;;;;;;2.50;1.80;;;19.90;71.90;;;;;;6276250;22;20010;-74
2022/08/16 06:25:12;;;;;;;2.83;2.10;;;20.00;71.90;;;;;;6275858;22;20016;-75
2022/08/16 06:27:38;;;;;;;3.17;2.22;;;20.10;71.80;;;;;;6275542;22;20010;-74
2022/08/16 06:30:07;;;;;;;3.22;2.40;;;20.10;71.70;;;;;;6223222;22;20016;-74
2022/08/16 06:32:33;;;;;;;3.13;2.10;;;20.20;71.60;;;;;;6275971;22;20012;-74
2022/08/16 06:34:59;;;;;;;2.03;1.73;;;20.20;71.50;;;;;;6248645;22;20050;-74
2022/08/16 06:37:25;;;;;;;3.63;2.30;;;20.30;71.50;;;;;;6275579;22;20008;-74
2022/08/16 06:39:50;;;;;;;3.25;2.22;;;20.30;71.40;;;;;;6275687;22;20058;-74
2022/08/16 06:42:17;;;;;;;2.65;2.00;;;20.50;71.40;;;;;;6248322;22;20000;-74
2022/08/16 06:44:43;;;;;;;2.35;1.80;;;20.40;71.30;;;;;;6275646;22;20012;-74
2022/08/16 06:47:09;;;;;;;2.17;1.77;;;20.50;71.20;;;;;;6276240;22;20065;-74
2022/08/16 06:49:35;;;;;;;2.33;1.90;;;20.50;71.10;;;;;;6275493;22;20016;-74
2022/08/16 06:52:00;;;;;;;1.73;1.52;;;20.60;71.00;;;;;;6275402;22;20035;-74
2022/08/16 06:54:26;;;;;;;2.80;2.00;;;20.60;70.90;;;;;;6275508;22;20004;-75
2022/08/16 06:56:52;;;;;;;3.40;2.20;;;20.70;70.90;;;;;;6248459;22;20331;-75
2022/08/16 06:59:18;;;;;;;2.70;2.10;;;20.70;70.80;;;;;;6218574;22;20326;-74
2022/08/16 07:01:44;;;;;;;2.53;2.03;;;20.80;70.80;;;;;;6276120;22;20035;-74
2022/08/16 07:04:09;;;;;;;1.73;1.50;;;20.80;70.70;;;;;;6248498;22;20015;-74
2022/08/16 07:06:35;;;;;;;2.45;1.77;;;20.90;70.60;;;;;;6275545;22;20015;-75
2022/08/16 07:09:01;;;;;;;2.30;1.77;;;20.90;70.50;;;;;;6275518;22;20015;-74
2022/08/16 07:11:27;;;;;;;3.50;2.35;;;21.00;70.50;;;;;;6275172;22;20011;-75
2022/08/16 07:13:53;;;;;;;2.25;1.92;;;21.00;70.40;;;;;;6276047;22;20022;-75
2022/08/16 07:16:19;;;;;;;2.22;1.90;;;21.10;70.30;;;;;;6275749;22;20129;-74
2022/08/16 07:18:46;;;;;;;2.33;1.90;;;21.10;70.30;;;;;;6275328;22;20007;-75
2022/08/16 07:21:12;;;;;;;2.15;1.80;;;21.20;70.20;;;;;;6275312;22;20336;-74
2022/08/16 07:23:40;;;;;;;1.70;1.52;;;21.30;70.10;;;;;;6276141;22;20078;-74
2022/08/16 07:26:09;;;;;;;2.47;1.90;;;21.30;70.00;;;;;;6275295;22;20011;-74
2022/08/16 07:28:36;;;;;;;2.85;2.10;;;21.30;69.90;;;;;;6276139;22;20015;-76
2022/08/16 07:31:03;;;;;;;3.45;2.20;;;21.40;69.70;;;;;;6275252;22;20081;-74
2022/08/16 07:33:33;;;;;;;2.80;2.10;;;21.50;69.70;;;;;;6276027;22;20034;-75
2022/08/16 07:35:59;;;;;;;3.08;2.28;;;21.60;69.50;;;;;;6275460;22;20015;-75
2022/08/16 07:38:26;;;;;;;2.53;2.10;;;21.60;69.30;;;;;;6248394;22;20058;-75
2022/08/16 07:40:53;;;;;;;3.25;2.33;;;21.70;69.20;;;;;;6275514;22;20012;-75
2022/08/16 07:43:20;;;;;;;5.03;3.38;;;21.80;69.00;;;;;;6275857;22;20031;-75
2022/08/16 07:45:47;;;;;;;3.40;2.72;;;21.90;68.80;;;;;;6272174;22;20012;-75
2022/08/16 07:48:12;;;;;;;3.60;2.70;;;21.90;68.60;;;;;;6275238;22;20011;-75
2022/08/16 07:50:40;;;;;;;3.58;2.67;;;21.90;68.50;;;;;;6275932;22;20018;-75
2022/08/16 07:53:06;;;;;;;5.10;3.30;;;22.00;68.30;;;;;;6248625;22;20094;-75
2022/08/16 07:55:32;;;;;;;3.70;2.75;;;22.20;68.20;;;;;;6272811;22;20085;-74
2022/08/16 07:57:57;;;;;;;3.40;2.55;;;22.20;67.90;;;;;;6248033;22;20012;-74
2022/08/16 08:00:23;;;;;;;3.88;2.85;;;22.40;67.80;;;;;;6274845;22;20100;-74
2022/08/16 08:02:49;;;;;;;2.90;2.30;;;22.50;67.50;;;;;;6275259;22;20439;-74
2022/08/16 08:05:15;;;;;;;4.10;2.67;;;22.60;67.20;;;;;;6274745;22;20004;-75
2022/08/16 08:07:41;;;;;;;3.58;2.78;;;22.80;66.90;;;;;;6274952;22;20011;-75
2022/08/16 08:10:08;;;;;;;5.35;2.58;;;23.00;66.70;;;;;;6274946;22;20454;-75
2022/08/16 08:12:34;;;;;;;3.92;2.70;;;23.10;66.30;;;;;;6271724;22;20061;-75
2022/08/16 08:15:00;;;;;;;3.83;2.50;;;23.20;66.00;;;;;;6274795;22;20035;-74
2022/08/16 08:17:28;;;;;;;3.72;2.78;;;23.40;65.80;;;;;;6274747;22;20073;-75
2022/08/16 08:19:54;;;;;;;3.75;2.70;;;23.50;65.50;;;;;;6247736;22;20062;-74
2022/08/16 08:22:21;;;;;;;3.33;2.42;;;23.60;65.10;;;;;;6275068;22;20012;-75
2022/08/16 08:24:47;;;;;;;3.45;2.47;;;23.80;64.90;;;;;;6247906;22;20077;-75
2022/08/16 08:27:13;;;;;;;3.35;2.40;;;24.00;64.60;;;;;;6275611;22;20035;-75
2022/08/16 08:29:40;;;;;;;3.50;2.60;;;24.00;64.20;;;;;;6248255;22;20007;-75
2022/08/16 08:32:07;;;;;;;4.32;2.60;;;24.10;64.20;;;;;;6247227;22;20102;-75
2022/08/16 08:34:33;;;;;;;3.75;2.45;;;24.20;63.90;;;;;;6247848;22;20035;-75
2022/08/16 08:36:59;;;;;;;3.28;2.70;;;24.40;63.70;;;;;;6274823;22;20136;-74
2022/08/16 08:39:25;;;;;;;2.42;2.10;;;24.40;63.60;;;;;;6274406;22;20014;-74
2022/08/16 08:41:51;;;;;;;3.35;2.33;;;24.60;63.50;;;;;;6274401;22;20004;-75
2022/08/16 08:44:18;;;;;;;1.77;1.65;;;24.70;63.20;;;;;;6274720;22;20012;-75
2022/08/16 08:46:44;;;;;;;2.50;2.13;;;24.90;63.10;;;;;;6274646;22;20430;-75
2022/08/16 08:49:09;;;;;;;2.55;2.10;;;25.10;62.90;;;;;;6247868;22;20007;-75
2022/08/16 08:51:37;;;;;;;2.55;2.00;;;25.20;62.80;;;;;;6274792;22;20008;-75
2022/08/16 08:54:05;;;;;;;3.30;2.28;;;25.30;62.70;;;;;;6249383;22;20008;-75
2022/08/16 08:56:32;;;;;;;3.17;2.38;;;25.40;62.50;;;;;;6276893;22;20083;-75
2022/08/16 08:58:57;;;;;;;3.13;2.33;;;25.40;62.40;;;;;;6276745;22;20014;-75
2022/08/16 09:01:29;;;;;;;2.10;1.77;;;25.50;62.40;;;;;;6249149;22;20011;-75
2022/08/16 09:03:55;;;;;;;2.40;1.85;;;25.60;62.50;;;;;;6273638;22;20007;-75
2022/08/16 09:06:21;;;;;;;2.75;2.17;;;25.80;62.40;;;;;;6276234;22;20008;-74
2022/08/16 09:08:46;;;;;;;3.13;2.30;;;25.90;62.20;;;;;;6275959;22;20018;-75
2022/08/16 09:11:12;;;;;;;3.22;2.40;;;25.90;62.00;;;;;;6275990;22;20066;-75
2022/08/16 09:13:39;;;;;;;3.08;2.33;;;26.00;62.00;;;;;;6276001;22;20400;-75
2022/08/16 09:16:05;;;;;;;2.10;1.80;;;26.10;62.00;;;;;;6249103;22;20035;-74
2022/08/16 09:18:31;;;;;;;2.35;2.08;;;26.20;61.90;;;;;;6276360;22;20004;-75
2022/08/16 09:20:58;;;;;;;3.78;2.53;;;26.40;61.70;;;;;;6275978;22;20061;-74
2022/08/16 09:23:25;;;;;;;2.53;2.17;;;26.40;61.50;;;;;;6276106;22;20007;-74
2022/08/16 09:25:50;;;;;;;3.15;2.05;;;26.40;61.50;;;;;;6275861;22;20091;-75
2022/08/16 09:28:17;;;;;;;2.85;2.10;;;26.50;61.60;;;;;;6276468;22;20069;-74
2022/08/16 09:30:43;;;;;;;2.75;2.45;;;26.50;61.50;;;;;;6273123;22;20019;-75
2022/08/16 09:33:10;;;;;;;2.92;2.42;;;26.60;61.50;;;;;;6276413;22;20003;-75
2022/08/16 09:35:37;;;;;;;2.53;2.20;;;26.60;61.30;;;;;;6248776;22;20008;-74
2022/08/16 09:38:03;;;;;;;2.97;2.15;;;26.60;61.20;;;;;;6276058;22;20004;-74
2022/08/16 09:40:29;;;;;;;2.03;1.80;;;26.70;61.00;;;;;;6245611;22;20327;-74
2022/08/16 09:42:57;;;;;;;3.17;1.92;;;27.00;61.10;;;;;;6276426;22;20004;-74
2022/08/16 09:45:24;;;;;;;2.20;2.00;;;27.00;60.80;;;;;;6276431;22;20014;-74
2022/08/16 09:47:53;;;;;;;2.50;2.00;;;27.10;60.60;;;;;;6249166;22;20011;-74
2022/08/16 09:50:20;;;;;;;2.60;2.00;;;27.10;60.50;;;;;;6276438;22;20428;-74
2022/08/16 09:52:46;;;;;;;2.75;2.20;;;27.20;60.40;;;;;;6276032;22;20035;-74
2022/08/16 09:55:12;;;;;;;2.20;2.00;;;27.20;60.60;;;;;;6248697;22;20046;-74
2022/08/16 09:57:40;;;;;;;2.15;1.90;;;27.20;60.50;;;;;;6276142;22;20042;-75
2022/08/16 10:00:09;;;;;;;2.30;2.10;;;27.30;60.30;;;;;;6275595;22;20011;-74
2022/08/16 10:02:35;;;;;;;2.25;1.90;;;27.40;60.20;;;;;;6276251;22;20012;-74
2022/08/16 10:05:01;;;;;;;1.95;1.70;;;27.40;60.10;;;;;;6276547;22;20011;-74
2022/08/16 10:07:29;;;;;;;1.90;1.70;;;27.50;60.00;;;;;;6276299;22;20010;-74
2022/08/16 10:09:55;;;;;;;1.77;1.63;;;27.60;59.90;;;;;;6275573;22;20042;-74
2022/08/16 10:15:07;;;;;;;1.63;1.52;;;27.90;59.50;;;;;;6275623;22;20016;-74
2022/08/16 10:17:34;;;;;;;1.65;1.55;;;28.00;59.40;;;;;;6275643;22;20004;-74
2022/08/16 10:20:00;;;;;;;1.70;1.60;;;28.00;59.10;;;;;;6275660;22;20062;-74
2022/08/16 10:22:26;;;;;;;1.80;1.60;;;28.10;59.00;;;;;;6275902;22;20011;-74
2022/08/16 10:24:52;;;;;;;1.67;1.48;;;28.20;59.60;;;;;;6275596;22;20461;-74
2022/08/16 10:27:19;;;;;;;1.60;1.50;;;28.10;58.80;;;;;;6276346;22;20019;-74
2022/08/16 10:29:47;;;;;;;1.70;1.60;;;28.20;58.70;;;;;;6248922;22;20018;-74
2022/08/16 10:32:12;;;;;;;1.70;1.60;;;28.20;58.60;;;;;;6275490;22;20012;-74
2022/08/16 10:34:38;;;;;;;1.88;1.60;;;28.30;58.60;;;;;;6275933;22;20030;-74
2022/08/16 10:37:04;;;;;;;1.70;1.60;;;28.30;58.50;;;;;;6275717;22;20054;-74
2022/08/16 10:39:30;;;;;;;2.28;1.65;;;28.40;58.40;;;;;;6248443;22;20010;-74
2022/08/16 10:41:56;;;;;;;1.80;1.70;;;28.40;58.20;;;;;;6276173;22;20015;-74
2022/08/16 10:44:22;;;;;;;2.03;1.75;;;28.40;58.00;;;;;;6276108;22;20004;-74
2022/08/16 10:46:48;;;;;;;1.70;1.60;;;28.40;57.90;;;;;;6275731;22;20487;-74
2022/08/16 10:49:13;;;;;;;1.75;1.55;;;28.50;57.80;;;;;;6248279;22;20109;-74
2022/08/16 10:51:40;;;;;;;1.70;1.60;;;28.50;57.70;;;;;;6275499;22;20440;-75
2022/08/16 10:54:05;;;;;;;1.90;1.67;;;28.60;57.70;;;;;;6272576;22;20007;-74
2022/08/16 10:56:32;;;;;;;1.90;1.80;;;28.50;57.60;;;;;;6275502;22;20035;-74
2022/08/16 10:58:58;;;;;;;1.70;1.60;;;28.60;57.60;;;;;;6275557;22;20073;-74
2022/08/16 11:01:25;;;;;;;1.70;1.60;;;28.60;57.50;;;;;;6275841;22;20436;-74
2022/08/16 11:03:52;;;;;;;2.03;1.60;;;28.60;57.50;;;;;;6275550;22;20011;-74
2022/08/16 11:06:18;;;;;;;1.40;1.30;;;28.70;57.40;;;;;;6275906;22;20011;-74
2022/08/16 11:08:44;;;;;;;1.40;1.30;;;28.70;57.20;;;;;;6276201;22;20332;-74
2022/08/16 11:11:12;;;;;;;1.83;1.63;;;28.90;57.10;;;;;;6248570;22;20008;-75
2022/08/16 11:13:38;;;;;;;1.95;1.60;;;28.90;56.70;;;;;;6274991;22;20435;-74
2022/08/16 11:16:04;;;;;;;1.40;1.30;;;29.00;56.60;;;;;;6275742;22;20026;-74
2022/08/16 11:18:30;;;;;;;1.75;1.58;;;29.00;56.50;;;;;;6248897;22;20007;-74
2022/08/16 11:20:58;;;;;;;1.88;1.63;;;29.10;56.40;;;;;;6275396;22;20008;-74
2022/08/16 11:23:25;;;;;;;1.50;1.40;;;29.00;56.30;;;;;;6248139;22;20015;-74
2022/08/16 11:25:51;;;;;;;1.45;1.35;;;28.90;56.40;;;;;;6275391;22;20004;-74
2022/08/16 11:28:18;;;;;;;1.80;1.70;;;28.90;56.40;;;;;;6248375;22;20069;-74
2022/08/16 11:30:44;;;;;;;2.15;1.70;;;28.80;56.40;;;;;;6275149;22;20008;-74
2022/08/16 11:33:10;;;;;;;2.08;1.88;;;28.80;56.40;;;;;;6275426;22;20007;-74
2022/08/16 11:35:37;;;;;;;2.17;1.60;;;28.80;56.30;;;;;;6275509;22;20003;-74
2022/08/16 11:38:10;;;;;;;2.45;1.48;;;29.00;56.10;;;;;;6275001;22;20038;-74
2022/08/16 11:40:48;;;;;;;1.70;1.60;;;29.00;55.80;;;;;;6275680;22;20066;-73
2022/08/16 11:43:17;;;;;;;1.45;1.35;;;29.10;55.60;;;;;;6273661;22;20306;-74
2022/08/16 11:45:45;;;;;;;2.08;1.67;;;29.30;55.40;;;;;;6273702;22;20447;-74
2022/08/16 11:48:12;;;;;;;1.70;1.60;;;29.40;55.30;;;;;;6272399;22;20061;-73
2022/08/16 11:50:39;;;;;;;1.48;1.33;;;29.60;54.90;;;;;;6274828;22;20008;-74
2022/08/16 11:53:06;;;;;;;2.38;1.60;;;29.60;54.70;;;;;;6248538;22;20425;-74
2022/08/16 11:55:33;;;;;;;1.70;1.50;;;29.60;54.60;;;;;;6249108;22;20058;-74
2022/08/16 11:58:00;;;;;;;1.60;1.50;;;29.60;54.70;;;;;;6275832;22;20064;-74
2022/08/16 12:00:28;;;;;;;1.90;1.52;;;29.50;54.70;;;;;;6275038;22;20003;-74
2022/08/16 12:02:54;;;;;;;1.90;1.70;;;29.50;54.60;;;;;;6274897;22;20003;-75
2022/08/16 12:05:21;;;;;;;1.83;1.67;;;29.50;54.70;;;;;;6275012;22;20077;-74
2022/08/16 12:07:47;;;;;;;1.88;1.60;;;29.50;54.80;;;;;;6223205;22;20034;-74
2022/08/16 12:10:15;;;;;;;2.65;1.80;;;29.40;54.70;;;;;;6271958;22;20454;-74
2022/08/16 12:12:42;;;;;;;2.45;2.00;;;29.40;54.80;;;;;;6275038;22;20008;-74
2022/08/16 12:15:10;;;;;;;2.33;1.83;;;29.30;54.80;;;;;;6274426;22;20011;-74
2022/08/16 12:17:37;;;;;;;2.50;1.70;;;29.30;54.80;;;;;;6247550;22;20518;-74
2022/08/16 12:20:09;;;;;;;2.13;1.90;;;29.30;55.00;;;;;;6248077;22;20420;-74
2022/08/16 12:22:36;;;;;;;2.30;1.98;;;29.10;54.80;;;;;;6273293;22;20090;-73
2022/08/16 12:25:06;;;;;;;2.30;1.88;;;29.10;55.00;;;;;;6274471;22;20018;-74
2022/08/16 12:27:32;;;;;;;;;;;29.00;55.10;;;;;;6273834;22;20007;-74
2022/08/16 12:29:58;;;;;;;1.80;1.63;;;28.90;55.30;;;;;;6248651;22;19914;-74
2022/08/16 12:32:24;;;;;;;1.90;1.70;;;28.80;55.50;;;;;;6275769;22;20086;-74
2022/08/16 12:34:50;;;;;;;1.85;1.52;;;28.70;55.50;;;;;;6276196;22;20097;-74
2022/08/16 12:37:16;;;;;;;1.65;1.55;;;28.80;55.60;;;;;;6273786;22;20078;-75
2022/08/16 12:39:42;;;;;;;1.40;1.30;;;28.70;55.50;;;;;;6275976;22;20000;-74
2022/08/16 12:42:08;;;;;;;1.80;1.42;;;28.60;55.30;;;;;;6275670;22;20057;-74
2022/08/16 12:44:35;;;;;;;1.88;1.60;;;28.60;55.40;;;;;;6276676;22;20012;-74
2022/08/16 12:49:39;;;;;;;2.33;1.67;;;28.60;55.40;;;;;;6275840;22;20020;-74
2022/08/16 12:52:04;;;;;;;1.80;1.40;;;28.60;55.40;;;;;;6276422;22;20069;-74